Charleston, SC

11:00 AM EST on February 19, 2017 (GMT -0500)
Charleston Executive

Weather History for KJZI - March, 2013

Change the Weather History Date:

Saturday, March 16, 2013

  Actual Average (KCHS) Record (KCHS)
Temperature  
Mean Temperature 65 °F -  
Max Temperature 75 °F 68 °F 88 °F (2016)
Min Temperature 55 °F 47 °F 28 °F (1988)
Growing Degree Days 15 (Base 50)    
Moisture  
Dew Point 46 °F    
Average Humidity 56    
Maximum Humidity 77    
Minimum Humidity 31    
Precipitation  
Precipitation 0.00 in - - ()
Sea Level Pressure  
Sea Level Pressure 29.99 in    
Wind  
Wind Speed 12 mph (SW)    
Max Wind Speed 18 mph    
Max Gust Speed 25 mph    
Visibility 10 miles    
Events      
Averages and records for this station are not official NWS values.
T = Trace of Precipitation, MM = Missing Value Source: NWS Daily Summary

Daily Weather History Graph

Daily Weather History Graph

Search for Another Location

Airport or City:

Trip Planner

Search our weather history database for the weather conditions in past years. The results will help you decide how hot, cold, wet, or windy it might be!

Date:

Astronomy

Mar. 16, 2013 Rise Set
Actual Time 7:28 AM EDT 7:28 PM EDT
Civil Twilight 7:04 AM EDT 7:53 PM EDT
Nautical Twilight 6:35 AM EDT 8:22 PM EDT
Astronomical Twilight 6:06 AM EDT 8:50 PM EDT
Moon 10:13 AM EDT (3/16) No Moon Set
Length of Visible Light 12h 49m
Length of Day
12h 00m
Waxing Crescent, 23% of the Moon is Illuminated
Mar 16
Waxing Crescent
Mar 19
First Quarter
Mar 27
Full
Apr 3
Last Quarter
Apr 10
New

Hourly Weather History & Observations

Time (EDT) Temp. Dew Point Humidity Pressure Visibility Wind Dir Wind Speed Gust Speed Precip Events Conditions
12:15 AM 57.2 °F 48.2 °F 72% 30.07 in 10.0 mi SW 13.8 mph 19.6 mph 0.00 in   Clear
12:35 AM 57.2 °F 48.2 °F 72% 30.06 in 10.0 mi SW 13.8 mph 20.7 mph 0.00 in   Clear
12:55 AM 57.2 °F 48.2 °F 72% 30.06 in 10.0 mi SW 15.0 mph 20.7 mph 0.00 in   Clear
1:15 AM 57.2 °F 48.2 °F 72% 30.05 in 10.0 mi SW 15.0 mph 23.0 mph 0.00 in   Clear
1:35 AM 57.2 °F 48.2 °F 72% 30.05 in 10.0 mi SW 15.0 mph 20.7 mph 0.00 in   Clear
1:55 AM 57.2 °F 48.2 °F 72% 30.04 in 10.0 mi SW 13.8 mph 24.2 mph 0.00 in   Clear
2:15 AM 57.2 °F 50.0 °F 77% 30.04 in 10.0 mi SW 15.0 mph 21.9 mph 0.00 in   Clear
2:35 AM 57.2 °F 50.0 °F 77% 30.03 in 10.0 mi SW 12.7 mph 19.6 mph 0.00 in   Clear
2:55 AM 57.2 °F 50.0 °F 77% 30.03 in 10.0 mi SW 9.2 mph - 0.00 in   Clear
3:15 AM 57.2 °F 48.2 °F 72% 30.03 in 10.0 mi SW 6.9 mph - 0.00 in   Clear
3:35 AM 57.2 °F 46.4 °F 67% 30.02 in 10.0 mi SW 6.9 mph - 0.00 in   Clear
3:55 AM 57.2 °F 46.4 °F 67% 30.02 in 10.0 mi WSW 8.1 mph - 0.00 in   Clear
4:15 AM 57.2 °F 44.6 °F 63% 30.02 in 10.0 mi WSW 8.1 mph - 0.00 in   Clear
4:35 AM 57.2 °F 42.8 °F 59% 30.01 in 10.0 mi WSW 9.2 mph - 0.00 in   Clear
4:55 AM 57.2 °F 42.8 °F 59% 30.01 in 10.0 mi WSW 10.4 mph - 0.00 in   Clear
5:35 AM 57.2 °F 41.0 °F 55% 30.01 in 10.0 mi WSW 10.4 mph 17.3 mph 0.00 in   Clear
6:15 AM 57.2 °F 39.2 °F 51% 30.02 in 10.0 mi WSW 10.4 mph 16.1 mph 0.00 in   Clear
6:55 AM 57.2 °F 39.2 °F 51% 30.03 in 10.0 mi WSW 9.2 mph 16.1 mph 0.00 in   Clear
7:15 AM 55.4 °F 39.2 °F 54% 30.03 in 10.0 mi West 8.1 mph - 0.00 in   Clear
7:35 AM 55.4 °F 39.2 °F 54% 30.03 in 10.0 mi West 8.1 mph - 0.00 in   Clear
7:55 AM 55.4 °F 39.2 °F 54% 30.03 in 10.0 mi WSW 8.1 mph - 0.00 in   Clear
8:15 AM 55.4 °F 39.2 °F 54% 30.04 in 10.0 mi Calm Calm - 0.00 in   Clear
8:35 AM 55.4 °F 41.0 °F 58% 30.04 in 10.0 mi WSW 4.6 mph - 0.00 in   Clear
9:15 AM 59.0 °F 39.2 °F 48% 30.04 in 10.0 mi WSW 10.4 mph - 0.00 in   Clear
9:35 AM 60.8 °F 41.0 °F 48% 30.04 in 10.0 mi WSW 10.4 mph - 0.00 in   Clear
9:55 AM 62.6 °F 41.0 °F 45% 30.04 in 10.0 mi West 11.5 mph 17.3 mph 0.00 in   Clear
10:15 AM 64.4 °F 41.0 °F 42% 30.04 in 10.0 mi WSW 9.2 mph - 0.00 in   Clear
10:35 AM 64.4 °F 42.8 °F 45% 30.04 in 10.0 mi West 11.5 mph 16.1 mph 0.00 in   Clear
10:55 AM 66.2 °F 42.8 °F 43% 30.03 in 10.0 mi WSW 12.7 mph 19.6 mph 0.00 in   Clear
11:15 AM 69.8 °F 42.8 °F 38% 30.02 in 10.0 mi WSW 13.8 mph 19.6 mph 0.00 in   Clear
11:35 AM 69.8 °F 42.8 °F 38% 30.02 in 10.0 mi WSW 15.0 mph 18.4 mph 0.00 in   Clear
11:55 AM 71.6 °F 42.8 °F 35% 30.01 in 10.0 mi West 12.7 mph 18.4 mph 0.00 in   Clear
12:15 PM 71.6 °F 42.8 °F 35% 30.00 in 10.0 mi WSW 13.8 mph 19.6 mph 0.00 in   Clear
12:35 PM 73.4 °F 42.8 °F 33% 30.00 in 10.0 mi WSW 16.1 mph 20.7 mph 0.00 in   Clear
12:55 PM 73.4 °F 42.8 °F 33% 29.99 in 10.0 mi West 16.1 mph 21.9 mph 0.00 in   Clear
1:15 PM 75.2 °F 42.8 °F 31% 29.98 in 10.0 mi West 15.0 mph 20.7 mph 0.00 in   Clear
1:35 PM 75.2 °F 42.8 °F 31% 29.97 in 10.0 mi WSW 13.8 mph 20.7 mph 0.00 in   Clear
1:55 PM 75.2 °F 42.8 °F 31% 29.96 in 10.0 mi WSW 15.0 mph 21.9 mph 0.00 in   Clear
2:15 PM 75.2 °F 42.8 °F 31% 29.95 in 10.0 mi SW 15.0 mph 21.9 mph 0.00 in   Clear
2:35 PM 73.4 °F 46.4 °F 38% 29.95 in 10.0 mi SSW 15.0 mph 20.7 mph 0.00 in   Clear
3:15 PM 71.6 °F 50.0 °F 46% 29.93 in 10.0 mi SSW 17.3 mph 21.9 mph 0.00 in   Clear
3:35 PM 71.6 °F 50.0 °F 46% 29.92 in 10.0 mi SSW 16.1 mph - 0.00 in   Clear
3:55 PM 71.6 °F 48.2 °F 43% 29.91 in 10.0 mi SSW 15.0 mph 20.7 mph 0.00 in   Clear
4:15 PM 71.6 °F 48.2 °F 43% 29.91 in 10.0 mi SSW 16.1 mph 23.0 mph 0.00 in   Clear
4:35 PM 71.6 °F 48.2 °F 43% 29.91 in 10.0 mi SSW 18.4 mph 23.0 mph 0.00 in   Clear
5:15 PM 69.8 °F 48.2 °F 46% 29.90 in 10.0 mi SW 17.3 mph 25.3 mph 0.00 in   Clear
5:35 PM 69.8 °F 48.2 °F 46% 29.90 in 10.0 mi SSW 16.1 mph 21.9 mph 0.00 in   Clear
6:15 PM 68.0 °F 50.0 °F 52% 29.91 in 10.0 mi SSW 13.8 mph 21.9 mph 0.00 in   Clear
6:35 PM 66.2 °F 50.0 °F 56% 29.90 in 10.0 mi SSW 11.5 mph 20.7 mph 0.00 in   Clear
6:55 PM 64.4 °F 50.0 °F 59% 29.91 in 10.0 mi SSW 11.5 mph 19.6 mph 0.00 in   Clear
7:15 PM 64.4 °F 50.0 °F 59% 29.91 in 10.0 mi SW 13.8 mph 19.6 mph 0.00 in   Clear
7:35 PM 62.6 °F 50.0 °F 63% 29.92 in 10.0 mi SW 12.7 mph 19.6 mph 0.00 in   Clear
7:55 PM 62.6 °F 51.8 °F 68% 29.93 in 10.0 mi SSW 11.5 mph 16.1 mph 0.00 in   Clear
8:15 PM 62.6 °F 51.8 °F 68% 29.93 in 10.0 mi SSW 11.5 mph 16.1 mph 0.00 in   Clear
8:35 PM 60.8 °F 51.8 °F 72% 29.93 in 10.0 mi SSW 10.4 mph 18.4 mph 0.00 in   Clear
9:15 PM 60.8 °F 51.8 °F 72% 29.95 in 10.0 mi SSW 9.2 mph - 0.00 in   Clear
9:35 PM 60.8 °F 51.8 °F 72% 29.95 in 10.0 mi SSW 9.2 mph - 0.00 in   Clear
10:15 PM 60.8 °F 51.8 °F 72% 29.97 in 10.0 mi SW 10.4 mph - 0.00 in   Clear
10:35 PM 60.8 °F 51.8 °F 72% 29.97 in 10.0 mi SSW 6.9 mph - 0.00 in   Clear
10:55 PM 60.8 °F 51.8 °F 72% 29.98 in 10.0 mi SW 8.1 mph - 0.00 in   Clear
11:15 PM 60.8 °F 50.0 °F 68% 29.98 in 10.0 mi SSW 9.2 mph - 0.00 in   Clear
11:35 PM 60.8 °F 51.8 °F 72% 29.98 in 10.0 mi SSW 8.1 mph - 0.00 in   Clear
11:55 PM 60.8 °F 51.8 °F 72% 29.98 in 10.0 mi SSW 6.9 mph - 0.00 in   Clear